Time;durP1;ratioP1;P1;durP2;ratioP2;P2;SDS_P1;SDS_P2;PMS_P1;PMS_P2;Temp;Humidity;BMP_temperature;BMP_pressure;BME280_temperature;BME280_humidity;BME280_pressure;Samples;Min_cycle;Max_cycle;Signal;HPM_P1;HPM_P2
2022/08/04 00:00:52;;;;;;;13.98;3.30;;;;;;;;;;2337966;57;21075;-77
2022/08/04 00:03:22;;;;;;;9.20;3.08;;;;;;;;;;2338148;57;21657;-76
2022/08/04 00:05:54;;;;;;;4.12;2.53;;;;;;;;;;2337260;57;21068;-79
2022/08/04 00:08:26;;;;;;;7.32;2.65;;;;;;;;;;2336327;57;21542;-78
2022/08/04 00:10:54;;;;;;;8.05;2.90;;;;;;;;;;2338058;57;21043;-78
2022/08/04 00:13:23;;;;;;;5.80;2.62;;;;;;;;;;2338515;57;21179;-78
2022/08/04 00:15:52;;;;;;;8.07;2.83;;;;;;;;;;2337141;57;21044;-78
2022/08/04 00:18:23;;;;;;;11.10;2.45;;;;;;;;;;2338010;57;21067;-78
2022/08/04 00:20:51;;;;;;;6.75;2.75;;;;;;;;;;2583466;53;21092;-76
2022/08/04 00:23:19;;;;;;;5.47;2.40;;;;;;;;;;2338399;57;21044;-78
2022/08/04 00:25:46;;;;;;;7.20;2.72;;;;;;;;;;2336258;57;21131;-76
2022/08/04 00:28:13;;;;;;;13.15;2.80;;;;;;;;;;2337669;57;21621;-76
2022/08/04 00:30:41;;;;;;;7.47;3.00;;;;;;;;;;2338170;57;21174;-77
2022/08/04 00:33:09;;;;;;;9.13;3.08;;;;;;;;;;2337800;57;21110;-78
2022/08/04 00:35:38;;;;;;;7.53;2.33;;;;;;;;;;2583584;53;21127;-76
2022/08/04 00:38:05;;;;;;;6.43;2.50;;;;;;;;;;2584327;53;21087;-78
2022/08/04 00:40:38;;;;;;;6.32;2.75;;;;;;;;;;2337508;57;21048;-75
2022/08/04 00:43:10;;;;;;;8.25;3.00;;;;;;;;;;2338778;57;21103;-78
2022/08/04 00:45:48;;;;;;;9.02;2.80;;;;;;;;;;2336505;57;21565;-78
2022/08/04 00:48:21;;;;;;;6.25;2.75;;;;;;;;;;2338498;57;21050;-78
2022/08/04 00:50:52;;;;;;;5.37;2.87;;;;;;;;;;2583418;53;21036;-77
2022/08/04 00:53:25;;;;;;;10.00;2.70;;;;;;;;;;2338321;57;21177;-76
2022/08/04 00:56:04;;;;;;;7.95;2.33;;;;;;;;;;2337505;57;21594;-78
2022/08/04 00:58:42;;;;;;;5.30;2.10;;;;;;;;;;2338244;57;21051;-78
2022/08/04 01:01:14;;;;;;;7.78;2.70;;;;;;;;;;2336653;57;21056;-78
2022/08/04 01:03:51;;;;;;;5.72;2.20;;;;;;;;;;2583278;53;21047;-79
2022/08/04 01:06:24;;;;;;;4.80;2.45;;;;;;;;;;2337739;57;21055;-76
2022/08/04 01:09:09;;;;;;;5.78;3.08;;;;;;;;;;2337836;57;21090;-78
2022/08/04 01:12:04;;;;;;;6.72;2.30;;;;;;;;;;2338406;57;21086;-77
2022/08/04 01:14:56;;;;;;;4.72;2.10;;;;;;;;;;2338227;57;21047;-77
2022/08/04 01:17:25;;;;;;;8.50;2.30;;;;;;;;;;2334207;57;21115;-79
2022/08/04 01:20:01;;;;;;;5.60;2.60;;;;;;;;;;2337351;57;21048;-78
2022/08/04 01:22:47;;;;;;;4.30;2.15;;;;;;;;;;2338213;57;21574;-77
2022/08/04 01:25:39;;;;;;;5.87;2.95;;;;;;;;;;2293354;57;21126;-78
2022/08/04 01:28:15;;;;;;;6.12;2.55;;;;;;;;;;2304561;57;21123;-78
2022/08/04 01:30:45;;;;;;;5.75;2.58;;;;;;;;;;2584019;53;21023;-78
2022/08/04 01:35:51;;;;;;;6.80;2.60;;;;;;;;;;2535890;54;22170;-76
2022/08/04 01:38:24;;;;;;;9.20;2.53;;;;;;;;;;2290719;58;21075;-77
2022/08/04 01:40:53;;;;;;;7.57;2.53;;;;;;;;;;2531506;54;21219;-79
2022/08/04 01:43:20;;;;;;;7.95;2.75;;;;;;;;;;2558476;54;21064;-78
2022/08/04 01:45:49;;;;;;;6.35;2.50;;;;;;;;;;2317115;58;21112;-78
2022/08/04 01:48:18;;;;;;;5.43;2.25;;;;;;;;;;2317492;58;21144;-76
2022/08/04 01:50:46;;;;;;;7.15;2.75;;;;;;;;;;2317088;58;21052;-76
2022/08/04 01:53:13;;;;;;;5.93;2.30;;;;;;;;;;2317424;58;21052;-77
2022/08/04 01:55:40;;;;;;;8.15;2.80;;;;;;;;;;2316470;58;21064;-77
2022/08/04 01:58:09;;;;;;;5.15;2.50;;;;;;;;;;2317025;58;21092;-76
2022/08/04 02:00:39;;;;;;;6.07;2.67;;;;;;;;;;2317138;58;21659;-77
2022/08/04 02:03:06;;;;;;;7.12;2.85;;;;;;;;;;2317715;58;21112;-78
2022/08/04 02:05:33;;;;;;;8.40;2.67;;;;;;;;;;2317432;58;21056;-79
2022/08/04 02:08:09;;;;;;;5.50;3.25;;;;;;;;;;2557264;54;21053;-77
2022/08/04 02:10:45;;;;;;;7.05;3.00;;;;;;;;;;2317885;58;21622;-78
2022/08/04 02:13:20;;;;;;;4.57;2.20;;;;;;;;;;2317580;58;21207;-77
2022/08/04 02:15:53;;;;;;;5.80;2.30;;;;;;;;;;2316720;58;21057;-78
2022/08/04 02:18:23;;;;;;;4.87;2.50;;;;;;;;;;2317972;58;21064;-78
2022/08/04 02:20:55;;;;;;;4.20;2.60;;;;;;;;;;2317691;58;21059;-77
2022/08/04 02:23:28;;;;;;;4.37;2.30;;;;;;;;;;2317205;58;21069;-75
2022/08/04 02:25:57;;;;;;;6.70;2.25;;;;;;;;;;2317034;58;21060;-77
2022/08/04 02:28:28;;;;;;;4.05;2.40;;;;;;;;;;2317021;58;21103;-77
2022/08/04 02:31:02;;;;;;;4.22;2.47;;;;;;;;;;2317834;58;21052;-77
2022/08/04 02:33:32;;;;;;;5.72;2.67;;;;;;;;;;2317213;58;21056;-76
2022/08/04 02:36:03;;;;;;;9.07;2.60;;;;;;;;;;2317115;58;21235;-75
2022/08/04 02:38:38;;;;;;;2.97;1.98;;;;;;;;;;2316787;58;21643;-76
2022/08/04 02:41:05;;;;;;;4.20;1.80;;;;;;;;;;2317042;58;21616;-78
2022/08/04 02:43:35;;;;;;;3.40;1.87;;;;;;;;;;2316997;58;21131;-78
2022/08/04 02:46:03;;;;;;;4.97;2.15;;;;;;;;;;2316262;58;21080;-75
2022/08/04 02:48:32;;;;;;;2.17;1.65;;;;;;;;;;2315982;58;21147;-78
2022/08/04 02:51:00;;;;;;;5.47;2.70;;;;;;;;;;2316044;58;21065;-78
2022/08/04 02:53:28;;;;;;;6.62;2.65;;;;;;;;;;2316082;58;21143;-76
2022/08/04 02:55:56;;;;;;;4.70;2.22;;;;;;;;;;2315469;58;21140;-78
2022/08/04 02:58:23;;;;;;;3.83;2.53;;;;;;;;;;2315182;58;21701;-78
2022/08/04 03:00:51;;;;;;;4.32;2.85;;;;;;;;;;2316056;58;21111;-78
2022/08/04 03:03:23;;;;;;;8.30;2.62;;;;;;;;;;2556914;54;21044;-78
2022/08/04 03:05:58;;;;;;;4.70;2.58;;;;;;;;;;2556759;54;21057;-78
2022/08/04 03:08:44;;;;;;;4.68;2.70;;;;;;;;;;2316797;58;21052;-78
2022/08/04 03:11:28;;;;;;;4.55;2.58;;;;;;;;;;2316086;58;21060;-77
2022/08/04 03:14:12;;;;;;;6.80;3.17;;;;;;;;;;2556300;54;21059;-77
2022/08/04 03:16:57;;;;;;;3.85;3.05;;;;;;;;;;2315730;58;21057;-77
2022/08/04 03:19:50;;;;;;;2.87;2.55;;;;;;;;;;2316188;58;21084;-76
2022/08/04 03:22:36;;;;;;;3.28;2.50;;;;;;;;;;2316332;58;21124;-77
2022/08/04 03:25:35;;;;;;;5.40;3.20;;;;;;;;;;2315713;58;21603;-78
2022/08/04 03:28:21;;;;;;;4.28;2.58;;;;;;;;;;2315864;58;21060;-78
2022/08/04 03:30:55;;;;;;;6.10;2.17;;;;;;;;;;2295948;58;21057;-78
2022/08/04 03:33:39;;;;;;;3.12;2.50;;;;;;;;;;2316329;58;21105;-78
2022/08/04 03:36:24;;;;;;;2.60;2.00;;;;;;;;;;2316166;58;21143;-77
2022/08/04 03:39:06;;;;;;;5.00;2.62;;;;;;;;;;2316515;58;21052;-75
2022/08/04 03:41:48;;;;;;;4.55;2.58;;;;;;;;;;2316564;58;21056;-78
2022/08/04 03:44:33;;;;;;;3.28;2.30;;;;;;;;;;2316701;58;21084;-78
2022/08/04 03:47:11;;;;;;;5.10;2.83;;;;;;;;;;2315057;58;21620;-76
2022/08/04 03:49:50;;;;;;;8.10;3.10;;;;;;;;;;2315624;58;21075;-75
2022/08/04 03:55:30;;;;;;;3.28;2.20;;;;;;;;;;2314803;58;21487;-78
2022/08/04 03:58:17;;;;;;;2.42;1.95;;;;;;;;;;2314760;58;21132;-78
2022/08/04 04:00:47;;;;;;;2.53;2.05;;;;;;;;;;2315280;58;21120;-78
2022/08/04 04:03:30;;;;;;;4.62;2.05;;;;;;;;;;2315518;58;21123;-78
2022/08/04 04:06:17;;;;;;;2.15;1.75;;;;;;;;;;2314290;58;21072;-76
2022/08/04 04:09:12;;;;;;;3.25;1.50;;;;;;;;;;2295096;58;21100;-75
2022/08/04 04:11:44;;;;;;;2.35;1.40;;;;;;;;;;2293792;58;21132;-76
2022/08/04 04:14:18;;;;;;;2.33;1.50;;;;;;;;;;2315104;58;21120;-77
2022/08/04 04:16:54;;;;;;;6.25;2.08;;;;;;;;;;2314886;58;21072;-77
2022/08/04 04:19:33;;;;;;;4.00;1.90;;;;;;;;;;2556490;54;21147;-78
2022/08/04 04:22:10;;;;;;;3.90;2.20;;;;;;;;;;2558159;54;21072;-77
2022/08/04 04:24:49;;;;;;;2.87;1.90;;;;;;;;;;2317134;58;21057;-77
2022/08/04 04:27:22;;;;;;;2.12;1.90;;;;;;;;;;2315696;58;21045;-77
2022/08/04 04:30:00;;;;;;;6.55;2.00;;;;;;;;;;2315794;58;21045;-77
2022/08/04 04:32:33;;;;;;;2.53;1.62;;;;;;;;;;2317022;58;21140;-77
2022/08/04 04:35:15;;;;;;;2.07;1.87;;;;;;;;;;2316232;58;21128;-77
2022/08/04 04:37:51;;;;;;;6.05;1.98;;;;;;;;;;2316202;58;21032;-77
2022/08/04 04:40:34;;;;;;;4.55;2.30;;;;;;;;;;2317050;58;21135;-77
2022/08/04 04:43:16;;;;;;;3.37;2.47;;;;;;;;;;2316239;58;21067;-77
2022/08/04 04:45:47;;;;;;;6.00;2.10;;;;;;;;;;2316353;58;21056;-77
2022/08/04 04:48:22;;;;;;;7.28;3.10;;;;;;;;;;2316483;58;21048;-76
2022/08/04 04:50:55;;;;;;;4.65;2.83;;;;;;;;;;2316753;58;21068;-77
2022/08/04 04:53:22;;;;;;;;;;;;;;;;;;2320441;58;21060;-77
2022/08/04 04:55:54;;;;;;;3.97;2.28;;;;;;;;;;2314670;58;20135;-77
2022/08/04 04:58:22;;;;;;;5.15;3.17;;;;;;;;;;2315091;58;21103;-75
2022/08/04 05:01:18;;;;;;;4.78;3.00;;;;;;;;;;2315927;58;21211;-75
2022/08/04 05:04:04;;;;;;;7.05;2.87;;;;;;;;;;2296124;58;21175;-76
2022/08/04 05:06:45;;;;;;;4.35;2.70;;;;;;;;;;2316105;58;21606;-76
2022/08/04 05:09:18;;;;;;;4.78;3.05;;;;;;;;;;2556011;54;21049;-76
2022/08/04 05:11:58;;;;;;;4.32;2.50;;;;;;;;;;2316359;58;21124;-77
2022/08/04 05:14:29;;;;;;;3.37;2.90;;;;;;;;;;2316899;58;21097;-76
2022/08/04 05:16:59;;;;;;;5.43;2.85;;;;;;;;;;2316697;58;21056;-77
2022/08/04 05:19:29;;;;;;;5.50;3.55;;;;;;;;;;2317205;58;21052;-76
2022/08/04 05:22:00;;;;;;;3.90;2.65;;;;;;;;;;2316277;58;21052;-77
2022/08/04 05:24:28;;;;;;;5.85;2.90;;;;;;;;;;2316878;58;21124;-78
2022/08/04 05:26:56;;;;;;;3.92;2.58;;;;;;;;;;2341969;54;22613;-74
2022/08/04 05:29:27;;;;;;;6.57;3.28;;;;;;;;;;2305440;58;21031;-74
2022/08/04 05:31:55;;;;;;;4.35;3.00;;;;;;;;;;2561794;53;21025;-74
2022/08/04 05:34:23;;;;;;;3.58;2.42;;;;;;;;;;2331700;57;21033;-74
2022/08/04 05:36:53;;;;;;;3.58;2.37;;;;;;;;;;2330954;57;21017;-74
2022/08/04 05:39:22;;;;;;;5.45;3.00;;;;;;;;;;2331522;57;21109;-74
2022/08/04 05:41:50;;;;;;;8.30;2.90;;;;;;;;;;2331871;57;21018;-73
2022/08/04 05:44:18;;;;;;;5.12;2.47;;;;;;;;;;2331736;57;21059;-74
2022/08/04 05:46:47;;;;;;;7.15;3.08;;;;;;;;;;2331305;57;21080;-76
2022/08/04 05:49:15;;;;;;;6.07;2.92;;;;;;;;;;2331960;57;21018;-77
2022/08/04 05:51:42;;;;;;;5.93;3.53;;;;;;;;;;2331298;57;21033;-73
2022/08/04 05:54:10;;;;;;;4.70;2.83;;;;;;;;;;2331873;57;21029;-74
2022/08/04 05:56:38;;;;;;;6.22;3.28;;;;;;;;;;2331294;57;21096;-74
2022/08/04 05:59:06;;;;;;;5.32;2.67;;;;;;;;;;2575545;53;21082;-74
2022/08/04 06:01:34;;;;;;;7.00;2.85;;;;;;;;;;2331647;57;21085;-75
2022/08/04 06:04:02;;;;;;;11.40;2.85;;;;;;;;;;2331616;57;21030;-74
2022/08/04 06:06:30;;;;;;;4.40;2.55;;;;;;;;;;2574571;53;21108;-78
2022/08/04 06:08:57;;;;;;;5.65;3.47;;;;;;;;;;2331647;57;21029;-74
2022/08/04 06:11:26;;;;;;;6.12;2.78;;;;;;;;;;2331809;57;21651;-74
2022/08/04 06:13:54;;;;;;;5.82;2.47;;;;;;;;;;2331867;57;21017;-74
2022/08/04 06:16:23;;;;;;;4.47;2.67;;;;;;;;;;2330795;57;21030;-74
2022/08/04 06:18:52;;;;;;;5.93;2.30;;;;;;;;;;2331442;57;21029;-78
2022/08/04 06:21:20;;;;;;;5.07;2.42;;;;;;;;;;2331599;57;21097;-74
2022/08/04 06:23:48;;;;;;;6.22;2.80;;;;;;;;;;2575799;53;21124;-74
2022/08/04 06:26:18;;;;;;;4.82;2.60;;;;;;;;;;2331968;57;21096;-75
2022/08/04 06:28:46;;;;;;;5.43;2.40;;;;;;;;;;2332061;57;21036;-74
2022/08/04 06:31:20;;;;;;;5.95;2.53;;;;;;;;;;2331973;57;21031;-74
2022/08/04 06:33:48;;;;;;;7.60;2.50;;;;;;;;;;2331876;57;21038;-75
2022/08/04 06:36:16;;;;;;;8.15;2.75;;;;;;;;;;2331178;57;21014;-74
2022/08/04 06:38:44;;;;;;;6.12;2.47;;;;;;;;;;2331230;57;21029;-74
2022/08/04 06:41:11;;;;;;;4.57;3.40;;;;;;;;;;2332290;57;21085;-74
2022/08/04 06:43:39;;;;;;;10.63;2.35;;;;;;;;;;2332058;57;21109;-76
2022/08/04 06:46:06;;;;;;;5.65;2.40;;;;;;;;;;2331837;57;21025;-78
2022/08/04 06:48:34;;;;;;;8.50;2.50;;;;;;;;;;2332075;57;21081;-74
2022/08/04 06:51:02;;;;;;;5.22;2.40;;;;;;;;;;2331197;57;21089;-74
2022/08/04 06:53:29;;;;;;;4.57;2.60;;;;;;;;;;2331432;57;21030;-74
2022/08/04 06:55:57;;;;;;;5.50;2.60;;;;;;;;;;2331577;57;21034;-74
2022/08/04 06:58:25;;;;;;;5.05;2.65;;;;;;;;;;2329793;57;21093;-74
2022/08/04 07:00:52;;;;;;;4.45;2.05;;;;;;;;;;2330936;57;21674;-74
2022/08/04 07:03:20;;;;;;;3.15;2.42;;;;;;;;;;2331728;57;21073;-74
2022/08/04 07:05:48;;;;;;;8.10;2.70;;;;;;;;;;2575285;53;21153;-75
2022/08/04 07:08:15;;;;;;;4.03;2.37;;;;;;;;;;2328777;57;21112;-77
2022/08/04 07:10:43;;;;;;;4.22;1.92;;;;;;;;;;2331555;57;21093;-74
2022/08/04 07:13:11;;;;;;;4.68;2.12;;;;;;;;;;2330577;57;21033;-74
2022/08/04 07:15:39;;;;;;;20.90;3.42;;;;;;;;;;2330032;57;21030;-77
2022/08/04 07:18:06;;;;;;;5.05;2.42;;;;;;;;;;2330608;57;21137;-78
2022/08/04 07:20:33;;;;;;;3.85;2.53;;;;;;;;;;2331055;57;21070;-74
2022/08/04 07:23:00;;;;;;;13.90;2.50;;;;;;;;;;2331278;57;21173;-75
2022/08/04 07:25:28;;;;;;;3.53;2.15;;;;;;;;;;2330226;57;21033;-74
2022/08/04 07:27:55;;;;;;;6.35;2.10;;;;;;;;;;2330682;57;21033;-76
2022/08/04 07:30:23;;;;;;;7.60;2.30;;;;;;;;;;2330908;57;21484;-78
2022/08/04 07:32:51;;;;;;;7.20;2.08;;;;;;;;;;2330395;57;21615;-78
2022/08/04 07:35:19;;;;;;;3.72;1.87;;;;;;;;;;2329443;57;21041;-74
2022/08/04 07:37:46;;;;;;;3.15;1.85;;;;;;;;;;2331247;57;21092;-78
2022/08/04 07:40:14;;;;;;;8.18;2.03;;;;;;;;;;2330525;57;21097;-75
2022/08/04 07:42:41;;;;;;;4.10;2.15;;;;;;;;;;2331354;57;21013;-75
2022/08/04 07:45:10;;;;;;;5.85;2.25;;;;;;;;;;2330606;57;21542;-74
2022/08/04 07:47:39;;;;;;;7.97;2.20;;;;;;;;;;2331646;57;21013;-75
2022/08/04 07:50:09;;;;;;;7.12;2.92;;;;;;;;;;2331300;57;21022;-76
2022/08/04 07:52:37;;;;;;;4.60;1.90;;;;;;;;;;2330912;57;21030;-75
2022/08/04 07:55:05;;;;;;;3.28;2.17;;;;;;;;;;2331672;57;21013;-74
2022/08/04 07:57:32;;;;;;;8.15;2.40;;;;;;;;;;2331323;57;21029;-77
2022/08/04 07:59:59;;;;;;;6.05;2.05;;;;;;;;;;2331114;57;21021;-74
2022/08/04 08:02:27;;;;;;;4.07;2.00;;;;;;;;;;2331724;57;21073;-74
2022/08/04 08:04:54;;;;;;;7.37;2.25;;;;;;;;;;2331822;57;21104;-74
2022/08/04 08:07:21;;;;;;;7.53;2.12;;;;;;;;;;2331517;57;21109;-75
2022/08/04 08:09:48;;;;;;;5.68;1.87;;;;;;;;;;2332137;57;21081;-74
2022/08/04 08:12:16;;;;;;;7.00;3.20;;;;;;;;;;2332071;57;21036;-75
2022/08/04 08:14:43;;;;;;;6.28;2.22;;;;;;;;;;2331053;57;21043;-75
2022/08/04 08:17:10;;;;;;;8.73;1.90;;;;;;;;;;2330672;57;21022;-75
2022/08/04 08:19:37;;;;;;;4.80;1.85;;;;;;;;;;2331683;57;21623;-78
2022/08/04 08:22:05;;;;;;;10.88;2.30;;;;;;;;;;2331978;57;21044;-75
2022/08/04 08:24:34;;;;;;;3.67;2.08;;;;;;;;;;2331535;57;21108;-78
2022/08/04 08:27:03;;;;;;;7.70;2.92;;;;;;;;;;2331455;57;21069;-74
2022/08/04 08:29:33;;;;;;;6.18;1.67;;;;;;;;;;2331726;57;21108;-77
2022/08/04 08:32:00;;;;;;;5.50;1.73;;;;;;;;;;2331095;57;21093;-75
2022/08/04 08:34:28;;;;;;;6.60;2.28;;;;;;;;;;2331909;57;21016;-75
2022/08/04 08:36:59;;;;;;;8.38;2.15;;;;;;;;;;2331374;57;21029;-75
2022/08/04 08:39:31;;;;;;;7.22;2.85;;;;;;;;;;2331869;57;21022;-74
2022/08/04 08:42:15;;;;;;;2.35;1.80;;;;;;;;;;2332277;57;21556;-75
2022/08/04 08:45:01;;;;;;;6.40;2.03;;;;;;;;;;2331791;57;21031;-77
2022/08/04 08:47:35;;;;;;;3.25;2.00;;;;;;;;;;2330473;57;21013;-74
2022/08/04 08:50:17;;;;;;;2.58;1.70;;;;;;;;;;2331473;57;21025;-75
2022/08/04 08:53:13;;;;;;;3.57;1.97;;;;;;;;;;2332283;57;21508;-75
2022/08/04 08:55:49;;;;;;;5.68;1.98;;;;;;;;;;2331141;57;21045;-75
2022/08/04 08:58:21;;;;;;;5.50;2.00;;;;;;;;;;2331998;57;21026;-79
2022/08/04 09:00:56;;;;;;;3.90;2.10;;;;;;;;;;2331853;57;21108;-76
2022/08/04 09:03:34;;;;;;;3.05;1.80;;;;;;;;;;2331805;57;21081;-75
2022/08/04 09:06:08;;;;;;;6.93;1.77;;;;;;;;;;2331289;57;21105;-74
2022/08/04 09:08:55;;;;;;;4.97;2.60;;;;;;;;;;2331708;57;21085;-75
2022/08/04 09:11:24;;;;;;;3.42;2.10;;;;;;;;;;2331908;57;21085;-75
2022/08/04 09:13:56;;;;;;;4.43;2.25;;;;;;;;;;2576026;53;21100;-76
2022/08/04 09:16:28;;;;;;;3.22;2.20;;;;;;;;;;2330919;57;21029;-74
2022/08/04 09:19:00;;;;;;;3.60;2.00;;;;;;;;;;2331726;57;21097;-78
2022/08/04 09:21:31;;;;;;;2.35;1.87;;;;;;;;;;2331685;57;21026;-79
2022/08/04 09:24:03;;;;;;;5.53;2.30;;;;;;;;;;2332137;57;21033;-74
2022/08/04 09:26:34;;;;;;;4.20;2.00;;;;;;;;;;2331393;57;21093;-77
2022/08/04 09:29:05;;;;;;;3.92;2.25;;;;;;;;;;2331937;57;21018;-75
2022/08/04 09:31:35;;;;;;;3.65;2.05;;;;;;;;;;2330891;57;21033;-75
2022/08/04 09:34:07;;;;;;;4.12;2.35;;;;;;;;;;2331684;57;21516;-74
2022/08/04 09:36:39;;;;;;;3.65;2.35;;;;;;;;;;2331399;57;21092;-77
2022/08/04 09:39:10;;;;;;;5.22;3.17;;;;;;;;;;2331756;57;21029;-75
2022/08/04 09:41:41;;;;;;;4.62;2.55;;;;;;;;;;2332022;57;21101;-78
2022/08/04 09:44:16;;;;;;;2.70;2.08;;;;;;;;;;2332024;57;21093;-74
2022/08/04 09:46:46;;;;;;;5.72;2.55;;;;;;;;;;2330762;57;21516;-74
2022/08/04 09:49:14;;;;;;;2.97;1.77;;;;;;;;;;2330988;57;21097;-75
2022/08/04 09:51:54;;;;;;;3.15;2.25;;;;;;;;;;2331676;57;21042;-78
2022/08/04 09:54:25;;;;;;;5.93;2.65;;;;;;;;;;2331531;57;21080;-75
2022/08/04 09:56:55;;;;;;;4.40;2.55;;;;;;;;;;2331384;57;21155;-76
2022/08/04 09:59:25;;;;;;;5.00;1.80;;;;;;;;;;2331923;57;21030;-78
2022/08/04 10:01:54;;;;;;;2.95;1.80;;;;;;;;;;2331689;57;21115;-74
2022/08/04 10:04:24;;;;;;;3.28;1.75;;;;;;;;;;2575409;53;21033;-75
2022/08/04 10:07:03;;;;;;;3.37;2.50;;;;;;;;;;2330756;57;21563;-74
2022/08/04 10:09:52;;;;;;;3.08;1.90;;;;;;;;;;2332117;57;21125;-74
2022/08/04 10:12:28;;;;;;;2.75;2.20;;;;;;;;;;2330689;57;21041;-75
2022/08/04 10:15:03;;;;;;;3.12;1.80;;;;;;;;;;2331997;57;21112;-79
2022/08/04 10:17:36;;;;;;;2.25;2.00;;;;;;;;;;2331441;57;21084;-74
2022/08/04 10:20:08;;;;;;;3.58;1.58;;;;;;;;;;2332090;57;21045;-74
2022/08/04 10:22:37;;;;;;;2.50;2.00;;;;;;;;;;2331798;57;21022;-74
2022/08/04 10:25:13;;;;;;;3.58;1.90;;;;;;;;;;2331185;57;21026;-74
2022/08/04 10:27:43;;;;;;;3.92;1.87;;;;;;;;;;2572566;53;21500;-78
2022/08/04 10:30:11;;;;;;;1.92;1.65;;;;;;;;;;2572816;53;21109;-75
2022/08/04 10:32:43;;;;;;;1.70;1.50;;;;;;;;;;2330600;57;21280;-74
2022/08/04 10:35:11;;;;;;;3.08;1.90;;;;;;;;;;2331153;57;21505;-74
2022/08/04 10:37:43;;;;;;;2.62;2.20;;;;;;;;;;2329761;57;21029;-78
2022/08/04 10:43:02;;;;;;;2.85;1.87;;;;;;;;;;2329926;57;21571;-75
2022/08/04 10:45:34;;;;;;;4.55;1.77;;;;;;;;;;2329976;57;21272;-78
2022/08/04 10:48:06;;;;;;;3.78;2.10;;;;;;;;;;2573431;53;21125;-75
2022/08/04 10:50:34;;;;;;;4.03;1.90;;;;;;;;;;2328788;57;21508;-77
2022/08/04 10:53:05;;;;;;;2.28;1.87;;;;;;;;;;2330821;57;21041;-77
2022/08/04 10:55:35;;;;;;;2.22;1.83;;;;;;;;;;2329141;57;21544;-75
2022/08/04 10:58:05;;;;;;;2.05;1.85;;;;;;;;;;2329483;57;21114;-74
2022/08/04 11:00:34;;;;;;;3.22;1.62;;;;;;;;;;2329802;57;21033;-75
2022/08/04 11:03:07;;;;;;;2.30;1.60;;;;;;;;;;2329757;57;21039;-75
2022/08/04 11:05:34;;;;;;;;;;;;;;;;;;2333663;57;21026;-77
2022/08/04 11:08:05;;;;;;;4.60;2.12;;;;;;;;;;2329861;57;20055;-75
2022/08/04 11:10:35;;;;;;;5.90;2.00;;;;;;;;;;2329787;57;21049;-79
2022/08/04 11:13:04;;;;;;;2.42;1.77;;;;;;;;;;2573897;53;21052;-75
2022/08/04 11:15:36;;;;;;;2.65;1.60;;;;;;;;;;2328996;57;21045;-75
2022/08/04 11:18:06;;;;;;;2.47;1.92;;;;;;;;;;2330648;57;21037;-75
2022/08/04 11:20:38;;;;;;;2.35;1.67;;;;;;;;;;2330009;57;21017;-76
2022/08/04 11:23:08;;;;;;;3.40;1.77;;;;;;;;;;2330386;57;21065;-77
2022/08/04 11:25:40;;;;;;;4.07;2.05;;;;;;;;;;2329985;57;21097;-75
2022/08/04 11:28:11;;;;;;;7.72;2.12;;;;;;;;;;2476249;53;71833;-85
2022/08/04 11:30:41;;;;;;;3.40;1.65;;;;;;;;;;2574839;53;21049;-85
2022/08/04 11:33:15;;;;;;;2.55;2.00;;;;;;;;;;2574844;53;21060;-85
2022/08/04 11:35:44;;;;;;;2.22;1.50;;;;;;;;;;2574808;53;21602;-85
2022/08/04 11:38:20;;;;;;;2.25;1.80;;;;;;;;;;2574514;53;21530;-85
2022/08/04 11:40:49;;;;;;;2.08;1.73;;;;;;;;;;2573496;53;21181;-85
2022/08/04 11:43:19;;;;;;;1.92;1.83;;;;;;;;;;2572751;53;21793;-85
2022/08/04 11:45:49;;;;;;;4.05;1.90;;;;;;;;;;2573511;53;21034;-86
2022/08/04 11:48:19;;;;;;;2.97;1.85;;;;;;;;;;2573185;53;21526;-84
2022/08/04 11:50:50;;;;;;;3.30;2.00;;;;;;;;;;2573519;53;21045;-85
2022/08/04 11:53:19;;;;;;;4.32;1.75;;;;;;;;;;2573746;53;21120;-85
2022/08/04 11:55:48;;;;;;;2.33;1.92;;;;;;;;;;2572611;53;21044;-86
2022/08/04 11:58:16;;;;;;;2.90;1.90;;;;;;;;;;2572985;53;21121;-86
2022/08/04 12:00:51;;;;;;;5.80;2.08;;;;;;;;;;2572514;53;21049;-85
2022/08/04 12:03:29;;;;;;;4.18;2.10;;;;;;;;;;2572139;53;21117;-86
2022/08/04 12:06:05;;;;;;;2.20;1.90;;;;;;;;;;2572443;53;21113;-85
2022/08/04 12:08:44;;;;;;;4.10;2.33;;;;;;;;;;2572731;53;21068;-85
2022/08/04 12:11:15;;;;;;;2.12;1.87;;;;;;;;;;2573286;53;21065;-86
2022/08/04 12:13:49;;;;;;;4.47;2.20;;;;;;;;;;2573120;53;21053;-85
2022/08/04 12:16:15;;;;;;;;;;;;;;;;;;2577346;53;21112;-86
2022/08/04 12:18:45;;;;;;;2.45;1.98;;;;;;;;;;2572775;53;20086;-86
2022/08/04 12:21:16;;;;;;;2.35;1.62;;;;;;;;;;2573386;53;21041;-87
2022/08/04 12:23:45;;;;;;;2.00;1.70;;;;;;;;;;2573549;53;21685;-86
2022/08/04 12:26:15;;;;;;;2.45;2.12;;;;;;;;;;2572953;53;21554;-85
2022/08/04 12:28:45;;;;;;;2.58;2.00;;;;;;;;;;2573516;53;21065;-86
2022/08/04 12:31:17;;;;;;;4.30;1.85;;;;;;;;;;2573340;53;21044;-85
2022/08/04 12:33:47;;;;;;;4.55;2.00;;;;;;;;;;2574182;53;21065;-88
2022/08/04 12:36:19;;;;;;;2.00;1.80;;;;;;;;;;2573111;53;21985;-86
2022/08/04 12:38:50;;;;;;;3.85;1.80;;;;;;;;;;2573787;53;21112;-87
2022/08/04 12:41:21;;;;;;;2.53;2.10;;;;;;;;;;2573696;53;21053;-86
2022/08/04 12:43:49;;;;;;;2.70;2.15;;;;;;;;;;2573743;53;21100;-85
2022/08/04 12:46:19;;;;;;;3.20;1.48;;;;;;;;;;2572280;53;21410;-87
2022/08/04 12:48:47;;;;;;;3.75;1.90;;;;;;;;;;2575041;53;21049;-85
2022/08/04 12:51:14;;;;;;;2.75;2.08;;;;;;;;;;2573748;53;21065;-86
2022/08/04 12:53:42;;;;;;;3.62;1.65;;;;;;;;;;2573906;53;21111;-86
2022/08/04 12:56:10;;;;;;;5.50;1.87;;;;;;;;;;2331470;57;21073;-87
2022/08/04 12:58:38;;;;;;;4.37;1.83;;;;;;;;;;2331180;57;21132;-86
2022/08/04 13:01:07;;;;;;;2.12;1.40;;;;;;;;;;2332778;57;21061;-87
2022/08/04 13:03:38;;;;;;;9.50;3.40;;;;;;;;;;2574440;53;21045;-86
2022/08/04 13:06:06;;;;;;;4.12;1.83;;;;;;;;;;2330915;57;21711;-86
2022/08/04 13:08:35;;;;;;;2.72;1.80;;;;;;;;;;2574111;53;21049;-86
2022/08/04 13:11:03;;;;;;;5.05;1.83;;;;;;;;;;2574091;53;21109;-85
2022/08/04 13:13:32;;;;;;;4.28;1.65;;;;;;;;;;2574606;53;21126;-86
2022/08/04 13:16:00;;;;;;;1.80;1.70;;;;;;;;;;2331739;57;21091;-87
2022/08/04 13:18:29;;;;;;;2.22;1.77;;;;;;;;;;2332786;57;21029;-87
2022/08/04 13:20:56;;;;;;;1.55;1.45;;;;;;;;;;2332623;57;21942;-87
2022/08/04 13:23:25;;;;;;;1.67;1.58;;;;;;;;;;2573917;53;21624;-86
2022/08/04 13:25:53;;;;;;;1.80;1.70;;;;;;;;;;2330054;57;21128;-88
2022/08/04 13:28:22;;;;;;;1.95;1.73;;;;;;;;;;2330882;57;21037;-86
2022/08/04 13:30:55;;;;;;;3.60;1.40;;;;;;;;;;2573858;53;21604;-86
2022/08/04 13:33:23;;;;;;;1.60;1.48;;;;;;;;;;2573977;53;21069;-87
2022/08/04 13:35:50;;;;;;;3.50;1.33;;;;;;;;;;2573786;53;21029;-86
2022/08/04 13:38:18;;;;;;;2.15;1.70;;;;;;;;;;2330082;57;21100;-85
2022/08/04 13:40:46;;;;;;;3.40;1.80;;;;;;;;;;2331226;57;21053;-87
2022/08/04 13:43:22;;;;;;;2.30;1.70;;;;;;;;;;2573669;53;21112;-85
2022/08/04 13:45:50;;;;;;;3.92;1.87;;;;;;;;;;2573455;53;21598;-84
2022/08/04 13:48:19;;;;;;;2.12;1.75;;;;;;;;;;2573532;53;21108;-86
2022/08/04 13:50:47;;;;;;;2.42;1.85;;;;;;;;;;2573860;53;21109;-88
2022/08/04 13:53:18;;;;;;;1.85;1.70;;;;;;;;;;2573653;53;21108;-87
2022/08/04 13:55:47;;;;;;;1.50;1.40;;;;;;;;;;2574508;53;21119;-86
2022/08/04 13:58:19;;;;;;;3.55;1.70;;;;;;;;;;2573762;53;21571;-87
2022/08/04 14:00:49;;;;;;;3.33;1.47;;;;;;;;;;2574247;53;21029;-87
2022/08/04 14:03:21;;;;;;;3.22;1.90;;;;;;;;;;2573998;53;21048;-87
2022/08/04 14:06:06;;;;;;;3.47;1.40;;;;;;;;;;2573682;53;21754;-87
2022/08/04 14:08:36;;;;;;;4.25;2.25;;;;;;;;;;2574001;53;21057;-86
2022/08/04 14:11:05;;;;;;;3.12;1.80;;;;;;;;;;2573928;53;21113;-86
2022/08/04 14:13:33;;;;;;;1.87;1.52;;;;;;;;;;2573590;53;21606;-86
2022/08/04 14:16:01;;;;;;;3.50;1.70;;;;;;;;;;2573175;53;21538;-86
2022/08/04 14:18:29;;;;;;;5.05;1.60;;;;;;;;;;2573650;53;21097;-86
2022/08/04 14:21:00;;;;;;;2.15;1.67;;;;;;;;;;2573619;53;21538;-88
2022/08/04 14:23:27;;;;;;;2.92;1.52;;;;;;;;;;2573248;53;21892;-86
2022/08/04 14:25:55;;;;;;;3.05;1.45;;;;;;;;;;2573178;53;21291;-87
2022/08/04 14:28:29;;;;;;;2.08;1.73;;;;;;;;;;2573173;53;21784;-85
2022/08/04 14:31:09;;;;;;;1.65;1.50;;;;;;;;;;2573431;53;21127;-85
2022/08/04 14:33:38;;;;;;;2.37;1.60;;;;;;;;;;2573731;53;21033;-85
2022/08/04 14:36:05;;;;;;;1.90;1.42;;;;;;;;;;2572784;53;21129;-87
2022/08/04 14:38:44;;;;;;;1.83;1.70;;;;;;;;;;2573031;53;21784;-86
2022/08/04 14:41:11;;;;;;;2.08;1.55;;;;;;;;;;2572757;53;21128;-87
2022/08/04 14:43:43;;;;;;;1.83;1.50;;;;;;;;;;2573950;53;21056;-86
2022/08/04 14:46:11;;;;;;;2.33;1.60;;;;;;;;;;2573549;53;21053;-88
2022/08/04 14:48:38;;;;;;;2.03;1.58;;;;;;;;;;2573903;53;21164;-87
2022/08/04 14:51:13;;;;;;;1.85;1.70;;;;;;;;;;2573413;53;21561;-86
2022/08/04 14:53:40;;;;;;;3.37;1.30;;;;;;;;;;2573356;53;21038;-84
2022/08/04 14:56:08;;;;;;;2.00;1.45;;;;;;;;;;2573077;53;21276;-84
2022/08/04 14:58:35;;;;;;;1.80;1.65;;;;;;;;;;2572934;53;21184;-86
2022/08/04 15:01:03;;;;;;;1.45;1.33;;;;;;;;;;2329790;57;21115;-78
2022/08/04 15:03:31;;;;;;;1.70;1.60;;;;;;;;;;2572314;53;21132;-84
2022/08/04 15:05:59;;;;;;;1.98;1.55;;;;;;;;;;2573468;53;21156;-86
2022/08/04 15:08:27;;;;;;;5.15;1.58;;;;;;;;;;2330856;57;21048;-85
2022/08/04 15:10:57;;;;;;;3.50;1.73;;;;;;;;;;2573115;53;21041;-88
2022/08/04 15:13:24;;;;;;;3.67;1.87;;;;;;;;;;2329795;57;21044;-85
2022/08/04 15:15:51;;;;;;;4.37;1.80;;;;;;;;;;2330232;57;21292;-85
2022/08/04 15:18:19;;;;;;;4.93;2.05;;;;;;;;;;2331231;57;21101;-85